Time;durP1;ratioP1;P1;durP2;ratioP2;P2;SDS_P1;SDS_P2;PMS_P1;PMS_P2;Temp;Humidity;BMP_temperature;BMP_pressure;BME280_temperature;BME280_humidity;BME280_pressure;Samples;Min_cycle;Max_cycle;Signal;HPM_P1;HPM_P2
2023/12/31 00:02:16;;;;;;;18.20;13.00;;;;;;;17.36;38.09;101175.08;103458;1281;62259;-77
2023/12/31 00:04:42;;;;;;;19.60;13.90;;;;;;;17.35;38.12;101174.38;103469;1282;60357;-77
2023/12/31 00:07:08;;;;;;;18.80;13.20;;;;;;;17.35;38.15;101177.95;103438;1281;61483;-77
2023/12/31 00:09:33;;;;;;;17.80;12.80;;;;;;;17.35;38.21;101182.76;103454;1281;61885;-77
2023/12/31 00:11:59;;;;;;;18.50;13.60;;;;;;;17.35;38.11;101184.73;103474;1281;60102;-77
2023/12/31 00:14:25;;;;;;;18.20;13.30;;;;;;;17.35;38.19;101185.06;103467;1281;61471;-77
2023/12/31 00:16:50;;;;;;;21.00;13.90;;;;;;;17.35;38.24;101185.63;103716;1280;61272;-77
2023/12/31 00:19:16;;;;;;;16.60;12.90;;;;;;;17.34;38.16;101186.70;103443;1281;61465;-77
2023/12/31 00:21:42;;;;;;;19.00;12.80;;;;;;;17.35;38.12;101184.38;103464;1282;60129;-77
2023/12/31 00:24:08;;;;;;;17.90;13.20;;;;;;;17.34;38.18;101184.05;103459;1282;61315;-77
2023/12/31 00:26:34;;;;;;;18.60;13.30;;;;;;;17.34;38.21;101183.51;103443;1281;61385;-77
2023/12/31 00:28:59;;;;;;;19.30;13.70;;;;;;;17.34;38.13;101184.94;103435;1282;62150;-77
2023/12/31 00:31:25;;;;;;;17.70;13.00;;;;;;;17.34;38.10;101183.17;103476;1281;62252;-77
2023/12/31 00:33:56;;;;;;;18.10;13.30;;;;;;;17.34;38.17;101187.09;103483;1281;74227;-77
2023/12/31 00:36:25;;;;;;;16.80;13.30;;;;;;;17.34;38.17;101191.16;103446;1281;61395;-77
2023/12/31 00:38:52;;;;;;;18.40;13.50;;;;;;;17.33;38.17;101195.14;103489;1281;61241;-77
2023/12/31 00:41:18;;;;;;;17.90;12.80;;;;;;;17.33;38.18;101196.20;103354;1281;72523;-77
2023/12/31 00:43:44;;;;;;;18.70;13.10;;;;;;;17.33;38.10;101200.45;103450;1282;61394;-77
2023/12/31 00:46:12;;;;;;;16.80;12.60;;;;;;;17.33;38.20;101196.58;103457;1282;60050;-77
2023/12/31 00:48:38;;;;;;;20.20;13.90;;;;;;;17.33;38.19;101197.09;103522;1282;60067;-76
2023/12/31 00:51:04;;;;;;;18.40;13.60;;;;;;;17.32;38.16;101198.72;103454;1281;62277;-77
2023/12/31 00:53:29;;;;;;;17.30;13.40;;;;;;;17.33;38.01;101204.21;103291;1281;61331;-77
2023/12/31 00:55:55;;;;;;;19.20;13.30;;;;;;;17.33;37.99;101204.77;103362;1282;60104;-77
2023/12/31 00:58:20;;;;;;;17.70;13.20;;;;;;;17.32;38.09;101204.77;103451;1282;61250;-77
2023/12/31 01:00:46;;;;;;;18.40;14.40;;;;;;;17.32;38.08;101206.20;103486;1281;61299;-77
2023/12/31 01:03:12;;;;;;;18.80;13.40;;;;;;;17.32;38.13;101202.29;103453;1281;61346;-77
2023/12/31 01:05:38;;;;;;;17.70;13.70;;;;;;;17.32;38.10;101200.52;103506;1280;61440;-77
2023/12/31 01:08:04;;;;;;;19.40;13.90;;;;;;;17.32;38.05;101204.08;103416;1282;61404;-77
2023/12/31 01:10:29;;;;;;;19.20;13.40;;;;;;;17.31;38.15;101206.60;103411;1282;61457;-76
2023/12/31 01:12:55;;;;;;;17.30;12.90;;;;;;;17.31;38.12;101213.55;103484;1282;61333;-77
2023/12/31 01:15:22;;;;;;;19.00;14.10;;;;;;;17.32;38.14;101210.33;103486;1281;61391;-77
2023/12/31 01:17:48;;;;;;;18.50;13.80;;;;;;;17.31;38.06;101208.40;103522;1281;74618;-77
2023/12/31 01:20:14;;;;;;;19.60;13.80;;;;;;;17.31;38.09;101210.17;103455;1281;61385;-77
2023/12/31 01:22:40;;;;;;;17.70;13.80;;;;;;;17.31;38.13;101208.39;103492;1282;61403;-77
2023/12/31 01:25:06;;;;;;;19.70;13.50;;;;;;;17.31;38.06;101205.74;103456;1281;62281;-77
2023/12/31 01:27:31;;;;;;;18.20;13.50;;;;;;;17.31;38.04;101206.46;103452;1284;61264;-77
2023/12/31 01:29:57;;;;;;;18.80;13.80;;;;;;;17.30;38.21;101201.67;103439;1282;61368;-76
2023/12/31 01:32:23;;;;;;;18.40;13.20;;;;;;;17.31;37.93;101205.93;103290;1282;61394;-77
2023/12/31 01:34:49;;;;;;;18.50;14.20;;;;;;;17.30;38.17;101206.69;103318;1282;61392;-77
2023/12/31 01:37:15;;;;;;;18.40;13.80;;;;;;;17.30;38.16;101205.27;103835;1281;60167;-77
2023/12/31 01:39:41;;;;;;;19.70;13.80;;;;;;;17.29;38.13;101203.66;103439;1281;61490;-77
2023/12/31 01:42:06;;;;;;;17.20;13.20;;;;;;;17.30;38.06;101196.37;103410;1283;61331;-77
2023/12/31 01:44:32;;;;;;;17.40;13.00;;;;;;;17.29;38.17;101206.34;103463;1281;60012;-77
2023/12/31 01:46:58;;;;;;;21.10;14.10;;;;;;;17.29;38.23;101200.85;103316;1281;61340;-77
2023/12/31 01:49:23;;;;;;;18.80;14.80;;;;;;;17.29;38.05;101199.42;103593;1281;72470;-77
2023/12/31 01:51:49;;;;;;;19.00;14.40;;;;;;;17.29;38.20;101202.46;103435;1281;61379;-77
2023/12/31 01:54:15;;;;;;;19.20;14.30;;;;;;;17.29;38.12;101197.29;103365;1281;61141;-77
2023/12/31 01:56:41;;;;;;;19.20;13.80;;;;;;;17.29;38.16;101196.23;103281;1282;61382;-77
2023/12/31 01:59:06;;;;;;;19.70;14.80;;;;;;;17.29;38.14;101194.27;103500;1280;61272;-77
2023/12/31 02:01:32;;;;;;;19.10;14.30;;;;;;;17.28;38.11;101192.70;103511;1281;61250;-77
2023/12/31 02:03:58;;;;;;;21.20;14.90;;;;;;;17.28;38.08;101194.83;103184;1283;75597;-77
2023/12/31 02:06:24;;;;;;;17.40;13.80;;;;;;;17.27;38.14;101193.44;103464;1280;61399;-77
2023/12/31 02:08:50;;;;;;;18.40;13.90;;;;;;;17.28;38.01;101195.39;103518;1282;61419;-76
2023/12/31 02:11:16;;;;;;;21.40;14.20;;;;;;;17.28;38.15;101197.52;103490;1282;61389;-76
2023/12/31 02:13:42;;;;;;;20.10;14.60;;;;;;;17.27;38.10;101198.08;103492;1281;61384;-76
2023/12/31 02:16:14;;;;;;;18.50;13.60;;;;;;;17.28;38.13;101196.64;103295;1281;59926;-76
2023/12/31 02:18:41;;;;;;;19.80;14.30;;;;;;;17.27;38.12;101194.88;103543;1282;61373;-77
2023/12/31 02:21:07;;;;;;;21.40;15.10;;;;;;;17.26;38.09;101187.62;103463;1282;61583;-77
2023/12/31 02:23:32;;;;;;;19.70;14.90;;;;;;;17.27;37.98;101183.34;103447;1281;61467;-77
2023/12/31 02:26:04;;;;;;;19.60;14.40;;;;;;;17.26;38.09;101182.99;103445;1282;61366;-77
2023/12/31 02:28:31;;;;;;;19.00;14.40;;;;;;;17.26;38.16;101186.40;103474;1282;61729;-77
2023/12/31 02:30:56;;;;;;;19.70;14.60;;;;;;;17.26;38.09;101187.13;103442;1281;62248;-77
2023/12/31 02:33:22;;;;;;;20.00;13.90;;;;;;;17.26;38.18;101185.50;103267;1280;62294;-77
2023/12/31 02:35:47;;;;;;;18.50;14.00;;;;;;;17.26;38.13;101178.23;103496;1281;61365;-77
2023/12/31 02:38:13;;;;;;;21.50;14.30;;;;;;;17.26;38.05;101178.77;103699;1284;60066;-77
2023/12/31 02:40:39;;;;;;;19.30;14.60;;;;;;;17.25;38.03;101173.98;103433;1282;62117;-77
2023/12/31 02:43:04;;;;;;;19.70;14.80;;;;;;;17.25;38.01;101176.13;103450;1282;61379;-77
2023/12/31 02:45:30;;;;;;;18.30;14.40;;;;;;;17.25;38.09;101173.98;103470;1281;61859;-77
2023/12/31 02:47:55;;;;;;;19.30;14.20;;;;;;;17.25;38.09;101175.78;103446;1281;61266;-77
2023/12/31 02:50:21;;;;;;;19.00;14.20;;;;;;;17.25;38.05;101180.06;103339;1282;61398;-76
2023/12/31 02:52:48;;;;;;;21.60;15.10;;;;;;;17.24;38.00;101179.54;103544;1281;61449;-77
2023/12/31 02:55:14;;;;;;;19.10;14.30;;;;;;;17.24;38.05;101184.70;103268;1281;72360;-77
2023/12/31 02:57:40;;;;;;;19.10;13.90;;;;;;;17.24;38.15;101185.77;103246;1283;61323;-77
2023/12/31 03:00:06;;;;;;;19.40;14.50;;;;;;;17.24;38.20;101190.57;103542;1281;61381;-77
2023/12/31 03:02:31;;;;;;;19.00;14.70;;;;;;;17.24;38.01;101190.06;103461;1282;61439;-77
2023/12/31 03:04:57;;;;;;;19.10;14.50;;;;;;;17.24;38.13;101189.00;103257;1280;61384;-78
2023/12/31 03:07:23;;;;;;;22.30;14.90;;;;;;;17.23;38.20;101188.33;103480;1281;61398;-76
2023/12/31 03:09:48;;;;;;;19.70;14.70;;;;;;;17.23;37.98;101188.85;103448;1281;73546;-76
2023/12/31 03:12:14;;;;;;;18.90;15.00;;;;;;;17.23;38.09;101192.23;103443;1280;62230;-76
2023/12/31 03:14:39;;;;;;;20.20;14.00;;;;;;;17.23;38.14;101192.42;103450;1281;61248;-78
2023/12/31 03:17:06;;;;;;;19.70;14.20;;;;;;;17.23;38.05;101197.22;103449;1282;61380;-78
2023/12/31 03:19:35;;;;;;;19.30;14.40;;;;;;;17.23;38.11;101197.22;103513;1282;61446;-77
2023/12/31 03:22:02;;;;;;;21.30;14.70;;;;;;;17.22;38.00;101198.49;103479;1284;62374;-76
2023/12/31 03:24:28;;;;;;;20.20;14.10;;;;;;;17.22;38.01;101199.40;103278;1280;60071;-76
2023/12/31 03:26:53;;;;;;;20.30;14.60;;;;;;;17.22;38.05;101200.09;103465;1281;61256;-76
2023/12/31 03:29:19;;;;;;;20.30;14.30;;;;;;;17.22;38.13;101204.20;103453;1282;61474;-79
2023/12/31 03:31:44;;;;;;;19.40;14.80;;;;;;;17.22;38.05;101202.60;103462;1284;61283;-78
2023/12/31 03:34:10;;;;;;;19.10;14.00;;;;;;;17.21;38.13;101208.84;103606;1281;61414;-78
2023/12/31 03:36:36;;;;;;;21.00;14.20;;;;;;;17.21;38.11;101210.46;103509;1280;61357;-78
2023/12/31 03:39:02;;;;;;;18.50;13.90;;;;;;;17.22;38.02;101215.77;103472;1282;61392;-76
2023/12/31 03:41:28;;;;;;;18.10;13.70;;;;;;;17.22;38.07;101220.95;103725;1280;61350;-77
2023/12/31 03:43:54;;;;;;;19.00;13.80;;;;;;;17.21;37.99;101220.59;103428;1281;61417;-76
2023/12/31 03:46:20;;;;;;;19.00;13.80;;;;;;;17.21;38.00;101225.59;103501;1282;61375;-78
2023/12/31 03:48:46;;;;;;;18.20;14.40;;;;;;;17.21;38.10;101229.52;103508;1282;61855;-78
2023/12/31 03:51:12;;;;;;;18.70;14.10;;;;;;;17.20;38.06;101231.67;103504;1281;62172;-76
2023/12/31 03:53:38;;;;;;;19.30;14.50;;;;;;;17.20;38.02;101232.73;103514;1281;75771;-76
2023/12/31 03:56:04;;;;;;;20.80;13.90;;;;;;;17.20;38.08;101234.33;103232;1286;62157;-76
2023/12/31 03:58:29;;;;;;;19.50;14.20;;;;;;;17.21;37.99;101239.48;103469;1281;61388;-76
2023/12/31 04:00:55;;;;;;;19.80;14.50;;;;;;;17.21;37.98;101247.31;103470;1281;61438;-76
2023/12/31 04:03:21;;;;;;;18.60;14.10;;;;;;;17.20;37.96;101253.02;103199;1282;61417;-76
2023/12/31 04:05:46;;;;;;;19.40;14.30;;;;;;;17.20;38.02;101260.31;103306;1281;61405;-78
2023/12/31 04:08:12;;;;;;;20.10;14.40;;;;;;;17.20;38.12;101262.65;103474;1281;61253;-79
2023/12/31 04:10:38;;;;;;;19.50;13.90;;;;;;;17.20;38.04;101264.61;103568;1280;61347;-78
2023/12/31 04:13:04;;;;;;;18.80;14.50;;;;;;;17.19;38.03;101267.29;103531;1281;60011;-76
2023/12/31 04:15:29;;;;;;;18.40;13.90;;;;;;;17.19;38.02;101268.54;103299;1281;61618;-76
2023/12/31 04:17:56;;;;;;;19.60;14.20;;;;;;;17.19;38.03;101274.41;103296;1281;62462;-76
2023/12/31 04:20:21;;;;;;;17.10;13.80;;;;;;;17.19;37.99;101277.27;103316;1282;61362;-76
2023/12/31 04:22:47;;;;;;;18.10;13.80;;;;;;;17.19;38.07;101275.50;103313;1282;60019;-76
2023/12/31 04:25:13;;;;;;;19.80;14.20;;;;;;;17.19;38.08;101277.64;103460;1281;72316;-76
2023/12/31 04:27:40;;;;;;;18.90;14.20;;;;;;;17.19;38.03;101277.46;103511;1280;61864;-77
2023/12/31 04:30:09;;;;;;;19.10;13.40;;;;;;;17.18;38.07;101278.58;103227;1280;61276;-78
2023/12/31 04:32:34;;;;;;;18.10;14.50;;;;;;;17.18;38.07;101284.96;103512;1280;60045;-76
2023/12/31 04:35:00;;;;;;;17.80;13.90;;;;;;;17.18;37.99;101284.98;103385;1280;61178;-76
2023/12/31 04:37:26;;;;;;;18.90;14.20;;;;;;;17.18;38.02;101287.65;103269;1282;61564;-76
2023/12/31 04:39:52;;;;;;;17.20;13.10;;;;;;;17.18;38.06;101288.02;103484;1280;60058;-76
2023/12/31 04:42:18;;;;;;;18.50;13.80;;;;;;;17.17;38.09;101288.55;103490;1283;61404;-76
2023/12/31 04:44:44;;;;;;;17.50;13.30;;;;;;;17.17;38.07;101285.90;103524;1281;61277;-76
2023/12/31 04:47:09;;;;;;;18.40;13.50;;;;;;;17.17;38.09;101288.20;103834;1281;61420;-76
2023/12/31 04:49:35;;;;;;;17.70;13.70;;;;;;;17.17;38.06;101294.62;103235;1280;61337;-76
2023/12/31 04:52:00;;;;;;;19.20;14.40;;;;;;;17.17;38.03;101293.20;103452;1281;61368;-76
2023/12/31 04:54:26;;;;;;;20.00;14.60;;;;;;;17.17;38.02;101295.70;103493;1281;61372;-76
2023/12/31 04:56:52;;;;;;;17.50;14.10;;;;;;;17.16;38.01;101300.54;103472;1282;61374;-76
2023/12/31 04:59:17;;;;;;;19.00;13.90;;;;;;;17.17;37.94;101298.37;103317;1281;61414;-76
2023/12/31 05:01:43;;;;;;;18.30;13.70;;;;;;;17.16;37.93;101299.64;103419;1281;73406;-76
2023/12/31 05:04:08;;;;;;;19.10;13.80;;;;;;;17.16;37.97;101302.86;103473;1281;61411;-76
2023/12/31 05:06:34;;;;;;;18.00;14.30;;;;;;;17.16;38.01;101303.20;103391;1281;61376;-76
2023/12/31 05:09:03;;;;;;;17.50;12.90;;;;;;;17.16;37.92;101301.62;103224;1280;61250;-76
2023/12/31 05:11:28;;;;;;;18.00;13.60;;;;;;;17.16;38.03;101308.20;103351;1281;62149;-76
2023/12/31 05:13:54;;;;;;;19.20;14.80;;;;;;;17.15;37.93;101313.56;103329;1280;61353;-76
2023/12/31 05:16:19;;;;;;;17.50;14.00;;;;;;;17.15;38.02;101315.14;103494;1280;61321;-77
2023/12/31 05:18:52;;;;;;;19.10;14.50;;;;;;;17.15;37.95;101311.97;103447;1281;59366;-76
2023/12/31 05:21:17;;;;;;;17.50;13.70;;;;;;;17.15;37.98;101314.66;103517;1284;74438;-76
2023/12/31 05:23:43;;;;;;;19.40;14.40;;;;;;;17.15;37.92;101313.94;103520;1281;61303;-76
2023/12/31 05:26:09;;;;;;;19.10;14.60;;;;;;;17.15;37.94;101313.95;103319;1281;60075;-76
2023/12/31 05:28:34;;;;;;;20.30;15.00;;;;;;;17.15;37.96;101312.34;103289;1282;61277;-77
2023/12/31 05:31:00;;;;;;;20.20;14.30;;;;;;;17.15;38.03;101311.65;103263;1284;61469;-76
2023/12/31 05:33:26;;;;;;;20.30;15.10;;;;;;;17.15;38.00;101313.05;103469;1282;61259;-76
2023/12/31 05:35:51;;;;;;;21.70;14.70;;;;;;;17.14;38.02;101312.00;103462;1281;61400;-76
2023/12/31 05:38:17;;;;;;;20.40;14.20;;;;;;;17.14;38.04;101315.21;103474;1281;61472;-77
2023/12/31 05:40:43;;;;;;;20.30;14.70;;;;;;;17.14;38.07;101314.51;103698;1282;61814;-76
2023/12/31 05:43:08;;;;;;;19.30;14.30;;;;;;;17.14;38.01;101315.05;103426;1281;61257;-76
2023/12/31 05:45:34;;;;;;;23.80;15.30;;;;;;;17.13;38.03;101312.94;103489;1281;61391;-76
2023/12/31 05:48:00;;;;;;;18.50;15.00;;;;;;;17.13;38.03;101314.71;103460;1281;61257;-77
2023/12/31 05:50:26;;;;;;;19.70;15.30;;;;;;;17.13;37.99;101316.86;103527;1281;61257;-76
2023/12/31 05:52:52;;;;;;;18.20;14.30;;;;;;;17.13;37.90;101313.67;103489;1280;61382;-77
2023/12/31 05:55:18;;;;;;;20.00;14.50;;;;;;;17.13;38.00;101317.92;103469;1284;61242;-76
2023/12/31 05:57:44;;;;;;;19.80;14.90;;;;;;;17.13;38.00;101322.21;103259;1281;62444;-76
2023/12/31 06:00:10;;;;;;;20.10;14.80;;;;;;;17.12;38.04;101327.23;103439;1282;61360;-76
2023/12/31 06:02:37;;;;;;;19.80;15.20;;;;;;;17.12;38.00;101329.16;102896;1284;61414;-76
2023/12/31 06:05:02;;;;;;;21.90;15.40;;;;;;;17.12;37.96;101328.09;102857;1284;61367;-76
2023/12/31 06:07:29;;;;;;;19.60;14.40;;;;;;;17.12;37.93;101331.14;102953;1284;59992;-77
2023/12/31 06:09:56;;;;;;;19.30;14.10;;;;;;;17.12;37.91;101327.41;102844;1284;61585;-76
2023/12/31 06:12:22;;;;;;;21.80;15.40;;;;;;;17.12;38.03;101329.73;102985;1288;60088;-77
2023/12/31 06:14:48;;;;;;;18.70;14.60;;;;;;;17.12;37.99;101330.08;102964;1284;61440;-76
2023/12/31 06:17:14;;;;;;;21.30;15.20;;;;;;;17.11;37.86;101328.13;102901;1284;61463;-76
2023/12/31 06:19:43;;;;;;;19.30;14.60;;;;;;;17.11;37.97;101331.70;102855;1284;61479;-78
2023/12/31 06:22:08;;;;;;;20.00;14.30;;;;;;;17.11;37.94;101333.48;102865;1286;60013;-76
2023/12/31 06:24:34;;;;;;;19.10;14.60;;;;;;;17.10;37.96;101328.55;102940;1284;62232;-76
2023/12/31 06:27:00;;;;;;;20.40;16.00;;;;;;;17.10;38.05;101330.15;103028;1284;61566;-78
2023/12/31 06:29:26;;;;;;;20.60;15.00;;;;;;;17.10;37.99;101330.33;103025;1284;61324;-76
2023/12/31 06:31:51;;;;;;;22.40;15.20;;;;;;;17.10;37.97;101333.70;102791;1285;61540;-78
2023/12/31 06:34:17;;;;;;;19.30;14.90;;;;;;;17.10;37.88;101334.42;102852;1284;61253;-78
2023/12/31 06:36:43;;;;;;;18.80;15.00;;;;;;;17.11;37.87;101334.41;102939;1284;73310;-79
2023/12/31 06:39:12;;;;;;;21.70;15.20;;;;;;;17.10;37.86;101336.58;103026;1284;61376;-76
2023/12/31 06:41:37;;;;;;;20.20;15.90;;;;;;;17.09;37.89;101342.09;103203;1282;62345;-76
2023/12/31 06:44:03;;;;;;;19.90;15.20;;;;;;;17.09;37.88;101344.76;103474;1282;61502;-76
2023/12/31 06:46:29;;;;;;;20.90;15.20;;;;;;;17.09;37.95;101343.52;103273;1281;61276;-77
2023/12/31 06:48:55;;;;;;;19.40;14.60;;;;;;;17.09;37.85;101344.08;103274;1281;62309;-77
2023/12/31 06:51:21;;;;;;;21.20;15.60;;;;;;;17.09;37.92;101349.77;103518;1281;61347;-77
2023/12/31 06:53:47;;;;;;;20.80;15.50;;;;;;;17.08;37.92;101351.73;103473;1281;61439;-76
2023/12/31 06:56:12;;;;;;;19.90;15.20;;;;;;;17.08;37.94;101353.17;103381;1282;61270;-76
2023/12/31 06:58:38;;;;;;;20.00;14.70;;;;;;;17.08;37.91;101353.36;103422;1281;72462;-76
2023/12/31 07:01:04;;;;;;;19.90;15.20;;;;;;;17.08;37.92;101347.50;103442;1282;61851;-76
2023/12/31 07:03:30;;;;;;;20.10;14.60;;;;;;;17.08;37.91;101352.29;103609;1282;60066;-77
2023/12/31 07:05:56;;;;;;;20.10;15.00;;;;;;;17.07;37.87;101349.12;103477;1281;61391;-77
2023/12/31 07:08:24;;;;;;;24.70;16.10;;;;;;;17.08;37.84;101351.96;103516;1282;72538;-76
2023/12/31 07:10:53;;;;;;;20.20;15.60;;;;;;;17.07;37.92;101356.42;103443;1281;61483;-77
2023/12/31 07:13:19;;;;;;;18.10;14.50;;;;;;;17.07;37.72;101357.68;103581;1280;59945;-76
2023/12/31 07:15:45;;;;;;;20.50;14.70;;;;;;;17.07;37.87;101361.25;103529;1280;61267;-76
2023/12/31 07:18:10;;;;;;;20.10;15.70;;;;;;;17.06;37.85;101359.67;103475;1282;62265;-76
2023/12/31 07:20:36;;;;;;;19.00;15.30;;;;;;;17.07;37.80;101361.41;103307;1282;61242;-76
2023/12/31 07:23:03;;;;;;;20.30;15.00;;;;;;;17.06;37.86;101359.11;103444;1282;61174;-76
2023/12/31 07:25:28;;;;;;;20.60;15.30;;;;;;;17.06;37.89;101361.80;103515;1281;61381;-76
2023/12/31 07:27:55;;;;;;;20.30;15.50;;;;;;;17.07;37.91;101369.98;103427;1281;60007;-77
2023/12/31 07:30:21;;;;;;;22.60;16.00;;;;;;;17.06;37.85;101370.17;103453;1280;61256;-76
2023/12/31 07:32:47;;;;;;;19.60;15.20;;;;;;;17.05;37.89;101372.54;103322;1281;61364;-77
2023/12/31 07:35:13;;;;;;;19.60;15.00;;;;;;;17.05;37.81;101376.60;103522;1282;61411;-76
2023/12/31 07:37:39;;;;;;;21.40;15.50;;;;;;;17.05;37.95;101378.74;102903;1281;700824;-77
2023/12/31 07:40:06;;;;;;;21.50;16.00;;;;;;;17.06;37.95;101384.05;103451;1281;61360;-76
2023/12/31 07:42:32;;;;;;;21.20;16.30;;;;;;;17.05;37.94;101383.92;103276;1281;61310;-76
2023/12/31 07:44:58;;;;;;;19.90;16.20;;;;;;;17.05;37.86;101388.20;103393;1281;61468;-76
2023/12/31 07:47:23;;;;;;;20.60;15.50;;;;;;;17.04;37.86;101388.22;103445;1280;60041;-76
2023/12/31 07:49:49;;;;;;;18.90;15.30;;;;;;;17.04;37.88;101391.41;103348;1281;61891;-76
2023/12/31 07:52:15;;;;;;;21.30;16.30;;;;;;;17.04;37.86;101393.91;103235;1282;61370;-76
2023/12/31 07:54:40;;;;;;;19.90;15.90;;;;;;;17.04;37.86;101395.34;103453;1282;61267;-76
2023/12/31 07:57:06;;;;;;;20.90;15.90;;;;;;;17.04;37.90;101402.63;103372;1280;60290;-76
2023/12/31 07:59:31;;;;;;;21.10;15.50;;;;;;;17.04;37.91;101403.52;103515;1280;62300;-76
2023/12/31 08:01:59;;;;;;;20.90;16.10;;;;;;;17.04;37.88;101404.23;103409;1282;61276;-77
2023/12/31 08:04:25;;;;;;;20.00;15.90;;;;;;;17.03;37.92;101403.90;103409;1282;61161;-76
2023/12/31 08:06:51;;;;;;;22.30;16.20;;;;;;;17.03;37.96;101406.41;103326;1281;61368;-76
2023/12/31 08:09:16;;;;;;;22.80;15.80;;;;;;;17.03;37.91;101411.39;103509;1282;61371;-76
2023/12/31 08:11:42;;;;;;;20.80;15.80;;;;;;;17.03;38.00;101411.94;103366;1284;59240;-76
2023/12/31 08:14:08;;;;;;;21.20;15.60;;;;;;;17.03;37.92;101413.70;103258;1282;61273;-77
2023/12/31 08:16:33;;;;;;;20.80;15.60;;;;;;;17.03;37.99;101415.64;103199;1281;74448;-76
2023/12/31 08:18:59;;;;;;;22.10;15.70;;;;;;;17.03;37.95;101415.67;103253;1280;61353;-76
2023/12/31 08:21:25;;;;;;;19.90;15.70;;;;;;;17.03;37.96;101417.45;103433;1281;61390;-77
2023/12/31 08:23:51;;;;;;;20.90;16.10;;;;;;;17.03;38.10;101414.94;103377;1284;61347;-76
2023/12/31 08:26:17;;;;;;;20.90;15.50;;;;;;;17.03;38.02;101416.54;103340;1281;61360;-76
2023/12/31 08:28:43;;;;;;;23.80;15.80;;;;;;;17.03;37.99;101422.42;103380;1282;62284;-76
2023/12/31 08:31:16;;;;;;;20.00;15.30;;;;;;;17.03;37.98;101418.33;103345;1282;61393;-76
2023/12/31 08:33:42;;;;;;;20.80;15.90;;;;;;;17.03;38.12;101420.83;103365;1284;72253;-78
2023/12/31 08:36:08;;;;;;;23.60;16.80;;;;;;;17.04;38.07;101421.69;103752;1281;62180;-76
2023/12/31 08:38:33;;;;;;;20.60;15.80;;;;;;;17.03;38.02;101425.08;103732;1281;61248;-77
2023/12/31 08:40:59;;;;;;;22.90;16.40;;;;;;;17.03;38.10;101424.02;103975;1281;59977;-77
2023/12/31 08:43:25;;;;;;;19.90;15.40;;;;;;;17.03;38.14;101435.03;103552;1284;61254;-77
2023/12/31 08:45:51;;;;;;;19.30;15.20;;;;;;;17.03;38.18;101434.32;103574;1282;61303;-76
2023/12/31 08:48:18;;;;;;;20.40;16.10;;;;;;;17.03;38.21;101434.66;103539;1282;61383;-77
2023/12/31 08:50:44;;;;;;;21.80;15.60;;;;;;;17.03;38.20;101435.04;103440;1282;61227;-77
2023/12/31 08:53:10;;;;;;;20.80;15.70;;;;;;;17.04;38.22;101433.77;103412;1282;61371;-76
2023/12/31 08:55:35;;;;;;;22.00;16.00;;;;;;;17.04;38.20;101433.41;103471;1281;72870;-76
2023/12/31 08:58:01;;;;;;;19.40;15.80;;;;;;;17.04;38.25;101429.50;103285;1281;62153;-77
2023/12/31 09:00:27;;;;;;;21.30;16.50;;;;;;;17.03;38.26;101426.85;103393;1282;61439;-76
2023/12/31 09:02:52;;;;;;;22.70;16.30;;;;;;;17.04;38.31;101425.06;103358;1282;60053;-76
2023/12/31 09:05:18;;;;;;;23.20;16.30;;;;;;;17.03;38.34;101423.65;103408;1282;62023;-76
2023/12/31 09:07:44;;;;;;;20.20;16.20;;;;;;;17.04;38.25;101422.73;103451;1282;61395;-76
2023/12/31 09:10:10;;;;;;;23.20;16.70;;;;;;;17.03;38.26;101424.34;103351;1284;75204;-76
2023/12/31 09:12:36;;;;;;;21.10;16.00;;;;;;;17.04;38.30;101422.20;103233;1285;61248;-76
2023/12/31 09:15:02;;;;;;;21.90;16.90;;;;;;;17.04;38.33;101420.24;103391;1282;60176;-76
2023/12/31 09:17:29;;;;;;;21.40;16.80;;;;;;;17.04;38.29;101421.31;103361;1281;61227;-76
2023/12/31 09:20:08;;;;;;;;;;;;;;;;;;;;;
2023/12/31 09:22:34;;;;;;;23.30;16.90;;;;;;;17.04;38.34;101417.06;103381;1281;61289;-76
2023/12/31 09:25:00;;;;;;;22.50;17.40;;;;;;;17.03;38.43;101411.54;103247;1281;61248;-76
2023/12/31 09:27:25;;;;;;;20.70;16.80;;;;;;;17.04;38.40;101406.02;103333;1282;61167;-77
2023/12/31 09:29:51;;;;;;;25.20;17.10;;;;;;;17.04;38.40;101407.96;103370;1282;61713;-77
2023/12/31 09:32:16;;;;;;;21.80;16.70;;;;;;;17.04;38.33;101405.66;103388;1280;61343;-77
2023/12/31 09:34:42;;;;;;;22.40;17.40;;;;;;;17.04;38.45;101404.08;103523;1282;61317;-77
2023/12/31 09:37:08;;;;;;;22.90;18.00;;;;;;;17.04;38.45;101401.56;103127;1283;61442;-77
2023/12/31 09:39:34;;;;;;;23.80;18.00;;;;;;;17.04;38.59;101398.18;103034;1286;61450;-77
2023/12/31 09:42:11;;;;;;;20.70;16.70;;;;;;;17.04;38.46;101398.18;103174;1283;62200;-77
2023/12/31 09:44:36;;;;;;;23.20;17.50;;;;;;;17.04;38.48;101395.52;103119;1284;61408;-77
2023/12/31 09:47:06;;;;;;;24.30;18.70;;;;;;;17.04;38.47;101394.82;103071;1285;61256;-77
2023/12/31 09:49:33;;;;;;;24.90;17.90;;;;;;;17.04;38.53;101388.06;102976;1283;73506;-77
2023/12/31 09:52:01;;;;;;;21.30;16.50;;;;;;;17.04;38.54;101384.86;103226;1283;75371;-77
2023/12/31 09:54:27;;;;;;;21.60;16.90;;;;;;;17.04;38.50;101379.70;103233;1282;62362;-77
2023/12/31 09:56:52;;;;;;;23.20;17.80;;;;;;;17.04;38.45;101381.30;103182;1285;61356;-77
2023/12/31 09:59:19;;;;;;;21.40;16.90;;;;;;;17.04;38.54;101375.60;103201;1285;61385;-77
2023/12/31 10:01:46;;;;;;;23.70;16.90;;;;;;;17.04;38.52;101375.95;103059;1285;61404;-77
2023/12/31 10:04:11;;;;;;;22.10;17.60;;;;;;;17.04;38.43;101374.35;102968;1283;61357;-77
2023/12/31 10:06:37;;;;;;;24.10;17.60;;;;;;;17.04;38.43;101369.02;103038;1282;59396;-77
2023/12/31 10:09:03;;;;;;;22.20;17.60;;;;;;;17.04;38.51;101369.00;103379;1281;61386;-77
2023/12/31 10:11:28;;;;;;;22.70;17.90;;;;;;;17.04;38.45;101365.45;103308;1282;62256;-77
2023/12/31 10:13:55;;;;;;;25.40;17.90;;;;;;;17.04;38.45;101363.85;103402;1282;74570;-77
2023/12/31 10:16:20;;;;;;;22.70;17.60;;;;;;;17.04;38.47;101358.16;103417;1282;61253;-77
2023/12/31 10:18:46;;;;;;;23.60;17.70;;;;;;;17.04;38.51;101357.45;103498;1282;61350;-77
2023/12/31 10:21:12;;;;;;;24.50;17.50;;;;;;;17.04;38.45;101356.20;103318;1282;59953;-77
2023/12/31 10:23:38;;;;;;;23.70;17.90;;;;;;;17.05;38.48;101355.30;103386;1280;61330;-77
2023/12/31 10:26:03;;;;;;;20.60;17.00;;;;;;;17.05;38.41;101350.67;103670;1281;61415;-77
2023/12/31 10:28:29;;;;;;;25.80;18.30;;;;;;;17.05;38.39;101351.38;103426;1282;61434;-77
2023/12/31 10:30:55;;;;;;;24.10;17.70;;;;;;;17.05;38.42;101345.87;103464;1281;61267;-77
2023/12/31 10:33:20;;;;;;;23.30;17.60;;;;;;;17.05;38.49;101347.83;103431;1281;59243;-77
2023/12/31 10:35:47;;;;;;;21.90;16.90;;;;;;;17.05;38.35;101341.78;103377;1282;61309;-77
2023/12/31 10:38:13;;;;;;;22.00;17.60;;;;;;;17.05;38.36;101336.25;103472;1282;61346;-77
2023/12/31 10:40:40;;;;;;;22.70;17.40;;;;;;;17.05;38.42;101327.73;103433;1281;61461;-77
2023/12/31 10:43:07;;;;;;;24.20;16.90;;;;;;;17.05;38.49;101326.30;103471;1282;61140;-77
2023/12/31 10:45:33;;;;;;;23.30;18.00;;;;;;;17.05;38.51;101320.42;103437;1282;61449;-77
2023/12/31 10:48:01;;;;;;;22.70;17.00;;;;;;;17.05;38.38;101318.29;103414;1281;61244;-77
2023/12/31 10:50:27;;;;;;;21.90;16.70;;;;;;;17.05;38.41;101312.60;103520;1282;60103;-77
2023/12/31 10:52:57;;;;;;;20.80;16.40;;;;;;;17.04;38.41;101309.77;103408;1281;61343;-77
2023/12/31 10:55:23;;;;;;;22.40;17.20;;;;;;;17.05;38.46;101304.77;103387;1280;74657;-77
2023/12/31 10:57:52;;;;;;;20.70;16.70;;;;;;;17.05;38.48;101298.02;103192;1282;61336;-77